<?xml version="1.0" encoding="UTF-8" standalone="no" ?>
<gpx xmlns="http://www.topografix.com/GPX/1/1" xmlns:xsi="http://www.w3.org/2001/XMLSchema-instance" xsi:schemaLocation="http://www.topografix.com/GPX/1/1 http://www.topografix.com/GPX/1/1/gpx.xsd" version="1.1" creator="VisuGPX - https://www.visugpx.com">
  <metadata>
    <name>trail vouan 15</name>
    <desc><![CDATA[Parcours créé avec gpstraces.net. Indice IBP de cette trace : 74]]></desc>
  </metadata>
  <trk>
    <name><![CDATA[trail vouan 15-15km-IBP74-hiking]]></name>
    <desc><![CDATA[Parcours créé avec gpstraces.net. Indice IBP de cette trace : 74]]></desc>
    <trkseg>
      <trkpt lat="46.14824" lon="6.4024">
        <ele>613</ele>
        <time>2024-01-16T07:55:38Z</time>
      </trkpt>
      <trkpt lat="46.14798" lon="6.40315">
        <ele>616</ele>
        <time>2024-01-16T07:56:23Z</time>
      </trkpt>
      <trkpt lat="46.14726" lon="6.40262">
        <ele>615</ele>
        <time>2024-01-16T07:57:14Z</time>
      </trkpt>
      <trkpt lat="46.14782" lon="6.40111">
        <ele>612</ele>
        <time>2024-01-16T07:58:46Z</time>
      </trkpt>
      <trkpt lat="46.14837" lon="6.40153">
        <ele>615</ele>
        <time>2024-01-16T07:59:25Z</time>
      </trkpt>
      <trkpt lat="46.149" lon="6.40112">
        <ele>615</ele>
        <time>2024-01-16T08:00:08Z</time>
      </trkpt>
      <trkpt lat="46.14922" lon="6.40111">
        <ele>614.2</ele>
        <time>2024-01-16T08:00:20Z</time>
      </trkpt>
      <trkpt lat="46.14944" lon="6.40105">
        <ele>614.2</ele>
        <time>2024-01-16T08:00:33Z</time>
      </trkpt>
      <trkpt lat="46.14956" lon="6.40106">
        <ele>614.3</ele>
        <time>2024-01-16T08:00:40Z</time>
      </trkpt>
      <trkpt lat="46.14964" lon="6.40109">
        <ele>614.8</ele>
        <time>2024-01-16T08:00:44Z</time>
      </trkpt>
      <trkpt lat="46.14966" lon="6.40101">
        <ele>614.9</ele>
        <time>2024-01-16T08:00:49Z</time>
      </trkpt>
      <trkpt lat="46.14967" lon="6.40096">
        <ele>614.9</ele>
        <time>2024-01-16T08:00:52Z</time>
      </trkpt>
      <trkpt lat="46.1497" lon="6.4008">
        <ele>614.7</ele>
        <time>2024-01-16T08:01:01Z</time>
      </trkpt>
      <trkpt lat="46.14973" lon="6.40061">
        <ele>614.6</ele>
        <time>2024-01-16T08:01:12Z</time>
      </trkpt>
      <trkpt lat="46.1498" lon="6.40014">
        <ele>614.4</ele>
        <time>2024-01-16T08:01:39Z</time>
      </trkpt>
      <trkpt lat="46.1498" lon="6.40009">
        <ele>614.4</ele>
        <time>2024-01-16T08:01:42Z</time>
      </trkpt>
      <trkpt lat="46.14982" lon="6.39986">
        <ele>614</ele>
        <time>2024-01-16T08:01:55Z</time>
      </trkpt>
      <trkpt lat="46.14993" lon="6.39983">
        <ele>615.2</ele>
        <time>2024-01-16T08:02:01Z</time>
      </trkpt>
      <trkpt lat="46.14999" lon="6.39978">
        <ele>615.9</ele>
        <time>2024-01-16T08:02:06Z</time>
      </trkpt>
      <trkpt lat="46.15024" lon="6.39936">
        <ele>617.2</ele>
        <time>2024-01-16T08:02:34Z</time>
      </trkpt>
      <trkpt lat="46.15044" lon="6.39893">
        <ele>618.2</ele>
        <time>2024-01-16T08:03:01Z</time>
      </trkpt>
      <trkpt lat="46.1506" lon="6.39851">
        <ele>619</ele>
        <time>2024-01-16T08:03:27Z</time>
      </trkpt>
      <trkpt lat="46.15061" lon="6.39847">
        <ele>619.2</ele>
        <time>2024-01-16T08:03:29Z</time>
      </trkpt>
      <trkpt lat="46.15076" lon="6.398">
        <ele>622.8</ele>
        <time>2024-01-16T08:03:57Z</time>
      </trkpt>
      <trkpt lat="46.15122" lon="6.39642">
        <ele>627.3</ele>
        <time>2024-01-16T08:05:31Z</time>
      </trkpt>
      <trkpt lat="46.15134" lon="6.39586">
        <ele>629.1</ele>
        <time>2024-01-16T08:06:04Z</time>
      </trkpt>
      <trkpt lat="46.1514" lon="6.3957">
        <ele>629.9</ele>
        <time>2024-01-16T08:06:14Z</time>
      </trkpt>
      <trkpt lat="46.15141" lon="6.39566">
        <ele>639</ele>
        <time>2024-01-16T08:06:16Z</time>
      </trkpt>
      <trkpt lat="46.15128" lon="6.39531">
        <ele>640.9</ele>
        <time>2024-01-16T08:06:38Z</time>
      </trkpt>
      <trkpt lat="46.15126" lon="6.39527">
        <ele>645</ele>
        <time>2024-01-16T08:06:40Z</time>
      </trkpt>
      <trkpt lat="46.15106" lon="6.39495">
        <ele>646.4</ele>
        <time>2024-01-16T08:07:02Z</time>
      </trkpt>
      <trkpt lat="46.15084" lon="6.39426">
        <ele>647.1</ele>
        <time>2024-01-16T08:07:43Z</time>
      </trkpt>
      <trkpt lat="46.15084" lon="6.39412">
        <ele>647.2</ele>
        <time>2024-01-16T08:07:51Z</time>
      </trkpt>
      <trkpt lat="46.15093" lon="6.39399">
        <ele>647.2</ele>
        <time>2024-01-16T08:08:00Z</time>
      </trkpt>
      <trkpt lat="46.15096" lon="6.39395">
        <ele>647.5</ele>
        <time>2024-01-16T08:08:03Z</time>
      </trkpt>
      <trkpt lat="46.15102" lon="6.39381">
        <ele>648.7</ele>
        <time>2024-01-16T08:08:12Z</time>
      </trkpt>
      <trkpt lat="46.15119" lon="6.3931">
        <ele>649.7</ele>
        <time>2024-01-16T08:08:54Z</time>
      </trkpt>
      <trkpt lat="46.1513" lon="6.39242">
        <ele>649.4</ele>
        <time>2024-01-16T08:09:33Z</time>
      </trkpt>
      <trkpt lat="46.15142" lon="6.39126">
        <ele>649.7</ele>
        <time>2024-01-16T08:10:39Z</time>
      </trkpt>
      <trkpt lat="46.15149" lon="6.3906">
        <ele>651.8</ele>
        <time>2024-01-16T08:11:17Z</time>
      </trkpt>
      <trkpt lat="46.15182" lon="6.38994">
        <ele>654.3</ele>
        <time>2024-01-16T08:11:59Z</time>
      </trkpt>
      <trkpt lat="46.15209" lon="6.38935">
        <ele>656.1</ele>
        <time>2024-01-16T08:12:36Z</time>
      </trkpt>
      <trkpt lat="46.15218" lon="6.38912">
        <ele>656.8</ele>
        <time>2024-01-16T08:12:50Z</time>
      </trkpt>
      <trkpt lat="46.15228" lon="6.38886">
        <ele>662.5</ele>
        <time>2024-01-16T08:13:06Z</time>
      </trkpt>
      <trkpt lat="46.15262" lon="6.38826">
        <ele>664.1</ele>
        <time>2024-01-16T08:13:45Z</time>
      </trkpt>
      <trkpt lat="46.15272" lon="6.38697">
        <ele>665.9</ele>
        <time>2024-01-16T08:14:59Z</time>
      </trkpt>
      <trkpt lat="46.15277" lon="6.38615">
        <ele>666.9</ele>
        <time>2024-01-16T08:15:46Z</time>
      </trkpt>
      <trkpt lat="46.15279" lon="6.38545">
        <ele>667.4</ele>
        <time>2024-01-16T08:16:26Z</time>
      </trkpt>
      <trkpt lat="46.15292" lon="6.38463">
        <ele>667.2</ele>
        <time>2024-01-16T08:17:13Z</time>
      </trkpt>
      <trkpt lat="46.15294" lon="6.38422">
        <ele>666.9</ele>
        <time>2024-01-16T08:17:36Z</time>
      </trkpt>
      <trkpt lat="46.15293" lon="6.38395">
        <ele>666.7</ele>
        <time>2024-01-16T08:17:52Z</time>
      </trkpt>
      <trkpt lat="46.15289" lon="6.38327">
        <ele>666.1</ele>
        <time>2024-01-16T08:18:31Z</time>
      </trkpt>
      <trkpt lat="46.15293" lon="6.38313">
        <ele>666.1</ele>
        <time>2024-01-16T08:18:39Z</time>
      </trkpt>
      <trkpt lat="46.15304" lon="6.38294">
        <ele>666.1</ele>
        <time>2024-01-16T08:18:51Z</time>
      </trkpt>
      <trkpt lat="46.15312" lon="6.38274">
        <ele>666.1</ele>
        <time>2024-01-16T08:19:03Z</time>
      </trkpt>
      <trkpt lat="46.15312" lon="6.38249">
        <ele>665.6</ele>
        <time>2024-01-16T08:19:17Z</time>
      </trkpt>
      <trkpt lat="46.15311" lon="6.38227">
        <ele>665.1</ele>
        <time>2024-01-16T08:19:30Z</time>
      </trkpt>
      <trkpt lat="46.1531" lon="6.3822">
        <ele>664.7</ele>
        <time>2024-01-16T08:19:34Z</time>
      </trkpt>
      <trkpt lat="46.15306" lon="6.38198">
        <ele>660.4</ele>
        <time>2024-01-16T08:19:47Z</time>
      </trkpt>
      <trkpt lat="46.15309" lon="6.38171">
        <ele>660.3</ele>
        <time>2024-01-16T08:20:03Z</time>
      </trkpt>
      <trkpt lat="46.15338" lon="6.38097">
        <ele>660.4</ele>
        <time>2024-01-16T08:20:48Z</time>
      </trkpt>
      <trkpt lat="46.15374" lon="6.38028">
        <ele>660.5</ele>
        <time>2024-01-16T08:21:33Z</time>
      </trkpt>
      <trkpt lat="46.15381" lon="6.38011">
        <ele>660.6</ele>
        <time>2024-01-16T08:21:43Z</time>
      </trkpt>
      <trkpt lat="46.15401" lon="6.37957">
        <ele>660.7</ele>
        <time>2024-01-16T08:22:16Z</time>
      </trkpt>
      <trkpt lat="46.15402" lon="6.37951">
        <ele>660.7</ele>
        <time>2024-01-16T08:22:19Z</time>
      </trkpt>
      <trkpt lat="46.15402" lon="6.3795">
        <ele>660.6</ele>
        <time>2024-01-16T08:22:20Z</time>
      </trkpt>
      <trkpt lat="46.154" lon="6.37938">
        <ele>659.1</ele>
        <time>2024-01-16T08:22:27Z</time>
      </trkpt>
      <trkpt lat="46.1541" lon="6.37918">
        <ele>658.3</ele>
        <time>2024-01-16T08:22:40Z</time>
      </trkpt>
      <trkpt lat="46.15416" lon="6.37922">
        <ele>658.8</ele>
        <time>2024-01-16T08:22:44Z</time>
      </trkpt>
      <trkpt lat="46.1547" lon="6.37904">
        <ele>660.5</ele>
        <time>2024-01-16T08:23:17Z</time>
      </trkpt>
      <trkpt lat="46.15478" lon="6.37904">
        <ele>660.7</ele>
        <time>2024-01-16T08:23:21Z</time>
      </trkpt>
      <trkpt lat="46.1552" lon="6.37902">
        <ele>663.2</ele>
        <time>2024-01-16T08:23:45Z</time>
      </trkpt>
      <trkpt lat="46.15559" lon="6.37881">
        <ele>663.5</ele>
        <time>2024-01-16T08:24:10Z</time>
      </trkpt>
      <trkpt lat="46.15563" lon="6.37883">
        <ele>663.8</ele>
        <time>2024-01-16T08:24:12Z</time>
      </trkpt>
      <trkpt lat="46.15592" lon="6.37866">
        <ele>665.3</ele>
        <time>2024-01-16T08:24:31Z</time>
      </trkpt>
      <trkpt lat="46.15615" lon="6.37852">
        <ele>675.8</ele>
        <time>2024-01-16T08:24:46Z</time>
      </trkpt>
      <trkpt lat="46.15642" lon="6.37833">
        <ele>675.1</ele>
        <time>2024-01-16T08:25:05Z</time>
      </trkpt>
      <trkpt lat="46.15662" lon="6.37827">
        <ele>674.7</ele>
        <time>2024-01-16T08:25:17Z</time>
      </trkpt>
      <trkpt lat="46.15694" lon="6.37806">
        <ele>675</ele>
        <time>2024-01-16T08:25:39Z</time>
      </trkpt>
      <trkpt lat="46.1574" lon="6.37799">
        <ele>675.8</ele>
        <time>2024-01-16T08:26:05Z</time>
      </trkpt>
      <trkpt lat="46.15765" lon="6.37806">
        <ele>676.1</ele>
        <time>2024-01-16T08:26:20Z</time>
      </trkpt>
      <trkpt lat="46.15828" lon="6.37779">
        <ele>678.6</ele>
        <time>2024-01-16T08:26:59Z</time>
      </trkpt>
      <trkpt lat="46.15887" lon="6.37776">
        <ele>682.9</ele>
        <time>2024-01-16T08:27:33Z</time>
      </trkpt>
      <trkpt lat="46.15925" lon="6.37773">
        <ele>693.4</ele>
        <time>2024-01-16T08:27:55Z</time>
      </trkpt>
      <trkpt lat="46.15971" lon="6.3778">
        <ele>695.3</ele>
        <time>2024-01-16T08:28:21Z</time>
      </trkpt>
      <trkpt lat="46.16026" lon="6.37771">
        <ele>695.7</ele>
        <time>2024-01-16T08:28:53Z</time>
      </trkpt>
      <trkpt lat="46.16112" lon="6.3778">
        <ele>696.2</ele>
        <time>2024-01-16T08:29:43Z</time>
      </trkpt>
      <trkpt lat="46.16137" lon="6.37788">
        <ele>696.2</ele>
        <time>2024-01-16T08:29:58Z</time>
      </trkpt>
      <trkpt lat="46.16182" lon="6.37845">
        <ele>696</ele>
        <time>2024-01-16T08:30:39Z</time>
      </trkpt>
      <trkpt lat="46.16202" lon="6.37872">
        <ele>695.7</ele>
        <time>2024-01-16T08:30:58Z</time>
      </trkpt>
      <trkpt lat="46.16222" lon="6.37889">
        <ele>695.4</ele>
        <time>2024-01-16T08:31:13Z</time>
      </trkpt>
      <trkpt lat="46.16243" lon="6.3789">
        <ele>695.1</ele>
        <time>2024-01-16T08:31:25Z</time>
      </trkpt>
      <trkpt lat="46.16269" lon="6.37897">
        <ele>694.6</ele>
        <time>2024-01-16T08:31:40Z</time>
      </trkpt>
      <trkpt lat="46.1628" lon="6.37904">
        <ele>694.5</ele>
        <time>2024-01-16T08:31:48Z</time>
      </trkpt>
      <trkpt lat="46.16288" lon="6.37915">
        <ele>694.5</ele>
        <time>2024-01-16T08:31:56Z</time>
      </trkpt>
      <trkpt lat="46.16298" lon="6.37917">
        <ele>695.2</ele>
        <time>2024-01-16T08:32:01Z</time>
      </trkpt>
      <trkpt lat="46.16305" lon="6.37911">
        <ele>694.8</ele>
        <time>2024-01-16T08:32:07Z</time>
      </trkpt>
      <trkpt lat="46.16314" lon="6.37911">
        <ele>694.5</ele>
        <time>2024-01-16T08:32:12Z</time>
      </trkpt>
      <trkpt lat="46.16325" lon="6.37913">
        <ele>694.2</ele>
        <time>2024-01-16T08:32:18Z</time>
      </trkpt>
      <trkpt lat="46.16335" lon="6.37919">
        <ele>694</ele>
        <time>2024-01-16T08:32:25Z</time>
      </trkpt>
      <trkpt lat="46.16346" lon="6.37953">
        <ele>693.5</ele>
        <time>2024-01-16T08:32:45Z</time>
      </trkpt>
      <trkpt lat="46.1635" lon="6.37956">
        <ele>693.3</ele>
        <time>2024-01-16T08:32:48Z</time>
      </trkpt>
      <trkpt lat="46.16353" lon="6.37954">
        <ele>693</ele>
        <time>2024-01-16T08:32:51Z</time>
      </trkpt>
      <trkpt lat="46.16364" lon="6.37917">
        <ele>691.9</ele>
        <time>2024-01-16T08:33:13Z</time>
      </trkpt>
      <trkpt lat="46.16373" lon="6.37911">
        <ele>691.5</ele>
        <time>2024-01-16T08:33:19Z</time>
      </trkpt>
      <trkpt lat="46.16382" lon="6.37907">
        <ele>691.1</ele>
        <time>2024-01-16T08:33:25Z</time>
      </trkpt>
      <trkpt lat="46.16424" lon="6.37903">
        <ele>690.1</ele>
        <time>2024-01-16T08:33:49Z</time>
      </trkpt>
      <trkpt lat="46.16444" lon="6.37889">
        <ele>689</ele>
        <time>2024-01-16T08:34:03Z</time>
      </trkpt>
      <trkpt lat="46.16459" lon="6.37867">
        <ele>687.6</ele>
        <time>2024-01-16T08:34:18Z</time>
      </trkpt>
      <trkpt lat="46.16512" lon="6.37875">
        <ele>685.8</ele>
        <time>2024-01-16T08:34:49Z</time>
      </trkpt>
      <trkpt lat="46.16538" lon="6.37884">
        <ele>685.3</ele>
        <time>2024-01-16T08:35:05Z</time>
      </trkpt>
      <trkpt lat="46.16559" lon="6.37881">
        <ele>684.9</ele>
        <time>2024-01-16T08:35:17Z</time>
      </trkpt>
      <trkpt lat="46.16577" lon="6.37879">
        <ele>683.4</ele>
        <time>2024-01-16T08:35:28Z</time>
      </trkpt>
      <trkpt lat="46.16631" lon="6.37861">
        <ele>683.3</ele>
        <time>2024-01-16T08:36:00Z</time>
      </trkpt>
      <trkpt lat="46.16664" lon="6.37856">
        <ele>683.3</ele>
        <time>2024-01-16T08:36:19Z</time>
      </trkpt>
      <trkpt lat="46.16672" lon="6.37863">
        <ele>682.9</ele>
        <time>2024-01-16T08:36:25Z</time>
      </trkpt>
      <trkpt lat="46.16691" lon="6.37857">
        <ele>682.4</ele>
        <time>2024-01-16T08:36:36Z</time>
      </trkpt>
      <trkpt lat="46.16706" lon="6.37856">
        <ele>682.3</ele>
        <time>2024-01-16T08:36:44Z</time>
      </trkpt>
      <trkpt lat="46.16757" lon="6.37862">
        <ele>681.8</ele>
        <time>2024-01-16T08:37:13Z</time>
      </trkpt>
      <trkpt lat="46.1678" lon="6.37867">
        <ele>681.5</ele>
        <time>2024-01-16T08:37:26Z</time>
      </trkpt>
      <trkpt lat="46.16847" lon="6.37898">
        <ele>681.5</ele>
        <time>2024-01-16T08:38:08Z</time>
      </trkpt>
      <trkpt lat="46.16915" lon="6.3794">
        <ele>684.7</ele>
        <time>2024-01-16T08:38:54Z</time>
      </trkpt>
      <trkpt lat="46.16919" lon="6.37943">
        <ele>692.9</ele>
        <time>2024-01-16T08:38:57Z</time>
      </trkpt>
      <trkpt lat="46.16946" lon="6.37951">
        <ele>694.3</ele>
        <time>2024-01-16T08:39:13Z</time>
      </trkpt>
      <trkpt lat="46.16962" lon="6.37961">
        <ele>694.4</ele>
        <time>2024-01-16T08:39:24Z</time>
      </trkpt>
      <trkpt lat="46.16985" lon="6.3798">
        <ele>694.9</ele>
        <time>2024-01-16T08:39:40Z</time>
      </trkpt>
      <trkpt lat="46.16988" lon="6.37928">
        <ele>694.2</ele>
        <time>2024-01-16T08:40:10Z</time>
      </trkpt>
      <trkpt lat="46.16989" lon="6.37906">
        <ele>686.3</ele>
        <time>2024-01-16T08:40:22Z</time>
      </trkpt>
      <trkpt lat="46.16996" lon="6.37862">
        <ele>682.7</ele>
        <time>2024-01-16T08:40:48Z</time>
      </trkpt>
      <trkpt lat="46.17" lon="6.37789">
        <ele>679.2</ele>
        <time>2024-01-16T08:41:29Z</time>
      </trkpt>
      <trkpt lat="46.17003" lon="6.37636">
        <ele>673.8</ele>
        <time>2024-01-16T08:42:57Z</time>
      </trkpt>
      <trkpt lat="46.17004" lon="6.37627">
        <ele>664.2</ele>
        <time>2024-01-16T08:43:03Z</time>
      </trkpt>
      <trkpt lat="46.17001" lon="6.37593">
        <ele>659.6</ele>
        <time>2024-01-16T08:43:22Z</time>
      </trkpt>
      <trkpt lat="46.1704" lon="6.3762">
        <ele>658.7</ele>
        <time>2024-01-16T08:43:49Z</time>
      </trkpt>
      <trkpt lat="46.1706" lon="6.3764">
        <ele>659.1</ele>
        <time>2024-01-16T08:44:05Z</time>
      </trkpt>
      <trkpt lat="46.17075" lon="6.37659">
        <ele>661.4</ele>
        <time>2024-01-16T08:44:18Z</time>
      </trkpt>
      <trkpt lat="46.17116" lon="6.37719">
        <ele>662.1</ele>
        <time>2024-01-16T08:45:00Z</time>
      </trkpt>
      <trkpt lat="46.1712" lon="6.37727">
        <ele>662.2</ele>
        <time>2024-01-16T08:45:05Z</time>
      </trkpt>
      <trkpt lat="46.17127" lon="6.37752">
        <ele>662.6</ele>
        <time>2024-01-16T08:45:20Z</time>
      </trkpt>
      <trkpt lat="46.1713" lon="6.37756">
        <ele>662.8</ele>
        <time>2024-01-16T08:45:23Z</time>
      </trkpt>
      <trkpt lat="46.17134" lon="6.37757">
        <ele>663.3</ele>
        <time>2024-01-16T08:45:25Z</time>
      </trkpt>
      <trkpt lat="46.17143" lon="6.37753">
        <ele>663.7</ele>
        <time>2024-01-16T08:45:30Z</time>
      </trkpt>
      <trkpt lat="46.17184" lon="6.37707">
        <ele>664.4</ele>
        <time>2024-01-16T08:46:05Z</time>
      </trkpt>
      <trkpt lat="46.17224" lon="6.37662">
        <ele>664.4</ele>
        <time>2024-01-16T08:46:39Z</time>
      </trkpt>
      <trkpt lat="46.17248" lon="6.37642">
        <ele>663.7</ele>
        <time>2024-01-16T08:46:57Z</time>
      </trkpt>
      <trkpt lat="46.17285" lon="6.37618">
        <ele>661.8</ele>
        <time>2024-01-16T08:47:22Z</time>
      </trkpt>
      <trkpt lat="46.17293" lon="6.37612">
        <ele>652.2</ele>
        <time>2024-01-16T08:47:28Z</time>
      </trkpt>
      <trkpt lat="46.17308" lon="6.37597">
        <ele>650.8</ele>
        <time>2024-01-16T08:47:40Z</time>
      </trkpt>
      <trkpt lat="46.17336" lon="6.37562">
        <ele>648.1</ele>
        <time>2024-01-16T08:48:06Z</time>
      </trkpt>
      <trkpt lat="46.17341" lon="6.37551">
        <ele>647.4</ele>
        <time>2024-01-16T08:48:13Z</time>
      </trkpt>
      <trkpt lat="46.17349" lon="6.37513">
        <ele>646</ele>
        <time>2024-01-16T08:48:35Z</time>
      </trkpt>
      <trkpt lat="46.17353" lon="6.37504">
        <ele>645.6</ele>
        <time>2024-01-16T08:48:41Z</time>
      </trkpt>
      <trkpt lat="46.17358" lon="6.37499">
        <ele>645.1</ele>
        <time>2024-01-16T08:48:45Z</time>
      </trkpt>
      <trkpt lat="46.17365" lon="6.37496">
        <ele>644.8</ele>
        <time>2024-01-16T08:48:49Z</time>
      </trkpt>
      <trkpt lat="46.17397" lon="6.37498">
        <ele>643.9</ele>
        <time>2024-01-16T08:49:07Z</time>
      </trkpt>
      <trkpt lat="46.17443" lon="6.37482">
        <ele>641.5</ele>
        <time>2024-01-16T08:49:35Z</time>
      </trkpt>
      <trkpt lat="46.17492" lon="6.37474">
        <ele>638.8</ele>
        <time>2024-01-16T08:50:03Z</time>
      </trkpt>
      <trkpt lat="46.17534" lon="6.37486">
        <ele>635.5</ele>
        <time>2024-01-16T08:50:28Z</time>
      </trkpt>
      <trkpt lat="46.17552" lon="6.37494">
        <ele>634.1</ele>
        <time>2024-01-16T08:50:39Z</time>
      </trkpt>
      <trkpt lat="46.17567" lon="6.37501">
        <ele>632.3</ele>
        <time>2024-01-16T08:50:48Z</time>
      </trkpt>
      <trkpt lat="46.17682" lon="6.3755">
        <ele>640.1</ele>
        <time>2024-01-16T08:51:59Z</time>
      </trkpt>
      <trkpt lat="46.17698" lon="6.37547">
        <ele>640.5</ele>
        <time>2024-01-16T08:52:09Z</time>
      </trkpt>
      <trkpt lat="46.17716" lon="6.37537">
        <ele>641.4</ele>
        <time>2024-01-16T08:52:20Z</time>
      </trkpt>
      <trkpt lat="46.1775" lon="6.37527">
        <ele>643.5</ele>
        <time>2024-01-16T08:52:40Z</time>
      </trkpt>
      <trkpt lat="46.17777" lon="6.37515">
        <ele>646.1</ele>
        <time>2024-01-16T08:52:57Z</time>
      </trkpt>
      <trkpt lat="46.17793" lon="6.37512">
        <ele>646.9</ele>
        <time>2024-01-16T08:53:06Z</time>
      </trkpt>
      <trkpt lat="46.1781" lon="6.37512">
        <ele>647.8</ele>
        <time>2024-01-16T08:53:16Z</time>
      </trkpt>
      <trkpt lat="46.17835" lon="6.37517">
        <ele>649.8</ele>
        <time>2024-01-16T08:53:31Z</time>
      </trkpt>
      <trkpt lat="46.17866" lon="6.37529">
        <ele>652.8</ele>
        <time>2024-01-16T08:53:50Z</time>
      </trkpt>
      <trkpt lat="46.17869" lon="6.3753">
        <ele>653.7</ele>
        <time>2024-01-16T08:53:52Z</time>
      </trkpt>
      <trkpt lat="46.1788" lon="6.37532">
        <ele>662.4</ele>
        <time>2024-01-16T08:53:59Z</time>
      </trkpt>
      <trkpt lat="46.17899" lon="6.37527">
        <ele>662.7</ele>
        <time>2024-01-16T08:54:10Z</time>
      </trkpt>
      <trkpt lat="46.17923" lon="6.37513">
        <ele>663</ele>
        <time>2024-01-16T08:54:26Z</time>
      </trkpt>
      <trkpt lat="46.17932" lon="6.3751">
        <ele>663.1</ele>
        <time>2024-01-16T08:54:31Z</time>
      </trkpt>
      <trkpt lat="46.17948" lon="6.37511">
        <ele>663.3</ele>
        <time>2024-01-16T08:54:40Z</time>
      </trkpt>
      <trkpt lat="46.1796" lon="6.37516">
        <ele>663.4</ele>
        <time>2024-01-16T08:54:47Z</time>
      </trkpt>
      <trkpt lat="46.1797" lon="6.37527">
        <ele>663.6</ele>
        <time>2024-01-16T08:54:56Z</time>
      </trkpt>
      <trkpt lat="46.17941" lon="6.37545">
        <ele>667.3</ele>
        <time>2024-01-16T08:55:16Z</time>
      </trkpt>
      <trkpt lat="46.17911" lon="6.37576">
        <ele>671.9</ele>
        <time>2024-01-16T08:55:40Z</time>
      </trkpt>
      <trkpt lat="46.1791" lon="6.37577">
        <ele>686.7</ele>
        <time>2024-01-16T08:55:41Z</time>
      </trkpt>
      <trkpt lat="46.17888" lon="6.37616">
        <ele>687.4</ele>
        <time>2024-01-16T08:56:06Z</time>
      </trkpt>
      <trkpt lat="46.1788" lon="6.37634">
        <ele>687.6</ele>
        <time>2024-01-16T08:56:18Z</time>
      </trkpt>
      <trkpt lat="46.17869" lon="6.37648">
        <ele>687.7</ele>
        <time>2024-01-16T08:56:28Z</time>
      </trkpt>
      <trkpt lat="46.17862" lon="6.37672">
        <ele>688.1</ele>
        <time>2024-01-16T08:56:42Z</time>
      </trkpt>
      <trkpt lat="46.17847" lon="6.37679">
        <ele>688.4</ele>
        <time>2024-01-16T08:56:51Z</time>
      </trkpt>
      <trkpt lat="46.17827" lon="6.37675">
        <ele>689.3</ele>
        <time>2024-01-16T08:57:02Z</time>
      </trkpt>
      <trkpt lat="46.17822" lon="6.37676">
        <ele>689.7</ele>
        <time>2024-01-16T08:57:05Z</time>
      </trkpt>
      <trkpt lat="46.17811" lon="6.37686">
        <ele>690.1</ele>
        <time>2024-01-16T08:57:13Z</time>
      </trkpt>
      <trkpt lat="46.17805" lon="6.37706">
        <ele>690.6</ele>
        <time>2024-01-16T08:57:25Z</time>
      </trkpt>
      <trkpt lat="46.17801" lon="6.37709">
        <ele>691.2</ele>
        <time>2024-01-16T08:57:28Z</time>
      </trkpt>
      <trkpt lat="46.17795" lon="6.37711">
        <ele>691.6</ele>
        <time>2024-01-16T08:57:31Z</time>
      </trkpt>
      <trkpt lat="46.17767" lon="6.37702">
        <ele>692.8</ele>
        <time>2024-01-16T08:57:48Z</time>
      </trkpt>
      <trkpt lat="46.17741" lon="6.3771">
        <ele>694.4</ele>
        <time>2024-01-16T08:58:03Z</time>
      </trkpt>
      <trkpt lat="46.17734" lon="6.37709">
        <ele>695.3</ele>
        <time>2024-01-16T08:58:07Z</time>
      </trkpt>
      <trkpt lat="46.17712" lon="6.37695">
        <ele>697.2</ele>
        <time>2024-01-16T08:58:22Z</time>
      </trkpt>
      <trkpt lat="46.17708" lon="6.37692">
        <ele>707.6</ele>
        <time>2024-01-16T08:58:25Z</time>
      </trkpt>
      <trkpt lat="46.17697" lon="6.37678">
        <ele>708.2</ele>
        <time>2024-01-16T08:58:35Z</time>
      </trkpt>
      <trkpt lat="46.17684" lon="6.37669">
        <ele>708.8</ele>
        <time>2024-01-16T08:58:44Z</time>
      </trkpt>
      <trkpt lat="46.1767" lon="6.37653">
        <ele>708.5</ele>
        <time>2024-01-16T08:58:56Z</time>
      </trkpt>
      <trkpt lat="46.17666" lon="6.37654">
        <ele>708</ele>
        <time>2024-01-16T08:58:58Z</time>
      </trkpt>
      <trkpt lat="46.17664" lon="6.37666">
        <ele>701.7</ele>
        <time>2024-01-16T08:59:05Z</time>
      </trkpt>
      <trkpt lat="46.17655" lon="6.37688">
        <ele>707.3</ele>
        <time>2024-01-16T08:59:18Z</time>
      </trkpt>
      <trkpt lat="46.17648" lon="6.37693">
        <ele>711.5</ele>
        <time>2024-01-16T08:59:23Z</time>
      </trkpt>
      <trkpt lat="46.1764" lon="6.37696">
        <ele>715</ele>
        <time>2024-01-16T08:59:28Z</time>
      </trkpt>
      <trkpt lat="46.17639" lon="6.377">
        <ele>718</ele>
        <time>2024-01-16T08:59:31Z</time>
      </trkpt>
      <trkpt lat="46.17647" lon="6.37719">
        <ele>720.4</ele>
        <time>2024-01-16T08:59:43Z</time>
      </trkpt>
      <trkpt lat="46.17656" lon="6.37719">
        <ele>722.3</ele>
        <time>2024-01-16T08:59:48Z</time>
      </trkpt>
      <trkpt lat="46.17663" lon="6.37726">
        <ele>723.8</ele>
        <time>2024-01-16T08:59:54Z</time>
      </trkpt>
      <trkpt lat="46.17665" lon="6.37733">
        <ele>725.2</ele>
        <time>2024-01-16T08:59:58Z</time>
      </trkpt>
      <trkpt lat="46.17663" lon="6.37741">
        <ele>726.4</ele>
        <time>2024-01-16T09:00:03Z</time>
      </trkpt>
      <trkpt lat="46.17657" lon="6.37744">
        <ele>727.5</ele>
        <time>2024-01-16T09:00:07Z</time>
      </trkpt>
      <trkpt lat="46.17648" lon="6.37739">
        <ele>728.5</ele>
        <time>2024-01-16T09:00:13Z</time>
      </trkpt>
      <trkpt lat="46.17635" lon="6.37743">
        <ele>729.4</ele>
        <time>2024-01-16T09:00:20Z</time>
      </trkpt>
      <trkpt lat="46.17632" lon="6.3774">
        <ele>730.2</ele>
        <time>2024-01-16T09:00:23Z</time>
      </trkpt>
      <trkpt lat="46.17626" lon="6.37732">
        <ele>732.2</ele>
        <time>2024-01-16T09:00:29Z</time>
      </trkpt>
      <trkpt lat="46.17621" lon="6.3773">
        <ele>734.2</ele>
        <time>2024-01-16T09:00:32Z</time>
      </trkpt>
      <trkpt lat="46.17614" lon="6.37734">
        <ele>736</ele>
        <time>2024-01-16T09:00:37Z</time>
      </trkpt>
      <trkpt lat="46.1761" lon="6.37744">
        <ele>737.9</ele>
        <time>2024-01-16T09:00:43Z</time>
      </trkpt>
      <trkpt lat="46.17608" lon="6.37769">
        <ele>740</ele>
        <time>2024-01-16T09:00:57Z</time>
      </trkpt>
      <trkpt lat="46.1761" lon="6.37779">
        <ele>742.1</ele>
        <time>2024-01-16T09:01:03Z</time>
      </trkpt>
      <trkpt lat="46.17626" lon="6.37799">
        <ele>746.5</ele>
        <time>2024-01-16T09:01:18Z</time>
      </trkpt>
      <trkpt lat="46.17632" lon="6.37803">
        <ele>746.6</ele>
        <time>2024-01-16T09:01:22Z</time>
      </trkpt>
      <trkpt lat="46.1764" lon="6.37806">
        <ele>746.8</ele>
        <time>2024-01-16T09:01:27Z</time>
      </trkpt>
      <trkpt lat="46.17643" lon="6.37816">
        <ele>746.8</ele>
        <time>2024-01-16T09:01:33Z</time>
      </trkpt>
      <trkpt lat="46.17639" lon="6.3782">
        <ele>747</ele>
        <time>2024-01-16T09:01:36Z</time>
      </trkpt>
      <trkpt lat="46.17582" lon="6.37829">
        <ele>753.1</ele>
        <time>2024-01-16T09:02:09Z</time>
      </trkpt>
      <trkpt lat="46.1758" lon="6.3783">
        <ele>754.6</ele>
        <time>2024-01-16T09:02:10Z</time>
      </trkpt>
      <trkpt lat="46.17557" lon="6.37839">
        <ele>777</ele>
        <time>2024-01-16T09:02:24Z</time>
      </trkpt>
      <trkpt lat="46.17549" lon="6.37839">
        <ele>779</ele>
        <time>2024-01-16T09:02:29Z</time>
      </trkpt>
      <trkpt lat="46.17542" lon="6.37835">
        <ele>780.5</ele>
        <time>2024-01-16T09:02:34Z</time>
      </trkpt>
      <trkpt lat="46.17522" lon="6.37809">
        <ele>780.9</ele>
        <time>2024-01-16T09:02:52Z</time>
      </trkpt>
      <trkpt lat="46.17502" lon="6.37805">
        <ele>783.7</ele>
        <time>2024-01-16T09:03:03Z</time>
      </trkpt>
      <trkpt lat="46.17498" lon="6.37801">
        <ele>785</ele>
        <time>2024-01-16T09:03:06Z</time>
      </trkpt>
      <trkpt lat="46.1748" lon="6.37766">
        <ele>786.8</ele>
        <time>2024-01-16T09:03:29Z</time>
      </trkpt>
      <trkpt lat="46.17475" lon="6.37762">
        <ele>786.9</ele>
        <time>2024-01-16T09:03:33Z</time>
      </trkpt>
      <trkpt lat="46.17468" lon="6.37761">
        <ele>786.8</ele>
        <time>2024-01-16T09:03:37Z</time>
      </trkpt>
      <trkpt lat="46.17463" lon="6.37763">
        <ele>786.7</ele>
        <time>2024-01-16T09:03:41Z</time>
      </trkpt>
      <trkpt lat="46.17456" lon="6.37774">
        <ele>786.4</ele>
        <time>2024-01-16T09:03:48Z</time>
      </trkpt>
      <trkpt lat="46.17451" lon="6.37807">
        <ele>786</ele>
        <time>2024-01-16T09:04:07Z</time>
      </trkpt>
      <trkpt lat="46.17455" lon="6.37823">
        <ele>785.9</ele>
        <time>2024-01-16T09:04:16Z</time>
      </trkpt>
      <trkpt lat="46.17502" lon="6.37912">
        <ele>790.1</ele>
        <time>2024-01-16T09:05:13Z</time>
      </trkpt>
      <trkpt lat="46.17508" lon="6.37934">
        <ele>790.3</ele>
        <time>2024-01-16T09:05:26Z</time>
      </trkpt>
      <trkpt lat="46.17513" lon="6.37957">
        <ele>792</ele>
        <time>2024-01-16T09:05:39Z</time>
      </trkpt>
      <trkpt lat="46.17523" lon="6.37983">
        <ele>796.1</ele>
        <time>2024-01-16T09:05:55Z</time>
      </trkpt>
      <trkpt lat="46.17528" lon="6.37993">
        <ele>798.6</ele>
        <time>2024-01-16T09:06:01Z</time>
      </trkpt>
      <trkpt lat="46.17541" lon="6.38007">
        <ele>801.3</ele>
        <time>2024-01-16T09:06:12Z</time>
      </trkpt>
      <trkpt lat="46.17547" lon="6.38008">
        <ele>804.2</ele>
        <time>2024-01-16T09:06:15Z</time>
      </trkpt>
      <trkpt lat="46.1759" lon="6.37993">
        <ele>816.6</ele>
        <time>2024-01-16T09:06:41Z</time>
      </trkpt>
      <trkpt lat="46.17604" lon="6.37992">
        <ele>819.7</ele>
        <time>2024-01-16T09:06:49Z</time>
      </trkpt>
      <trkpt lat="46.17615" lon="6.37996">
        <ele>822.7</ele>
        <time>2024-01-16T09:06:56Z</time>
      </trkpt>
      <trkpt lat="46.17628" lon="6.38008">
        <ele>825.9</ele>
        <time>2024-01-16T09:07:06Z</time>
      </trkpt>
      <trkpt lat="46.17634" lon="6.38016">
        <ele>829.1</ele>
        <time>2024-01-16T09:07:12Z</time>
      </trkpt>
      <trkpt lat="46.17676" lon="6.38121">
        <ele>851.4</ele>
        <time>2024-01-16T09:08:16Z</time>
      </trkpt>
      <trkpt lat="46.17681" lon="6.38129">
        <ele>852.4</ele>
        <time>2024-01-16T09:08:21Z</time>
      </trkpt>
      <trkpt lat="46.1769" lon="6.38133">
        <ele>853.6</ele>
        <time>2024-01-16T09:08:27Z</time>
      </trkpt>
      <trkpt lat="46.1771" lon="6.38128">
        <ele>856.1</ele>
        <time>2024-01-16T09:08:39Z</time>
      </trkpt>
      <trkpt lat="46.17717" lon="6.38131">
        <ele>857.4</ele>
        <time>2024-01-16T09:08:43Z</time>
      </trkpt>
      <trkpt lat="46.17719" lon="6.38144">
        <ele>858.7</ele>
        <time>2024-01-16T09:08:50Z</time>
      </trkpt>
      <trkpt lat="46.17718" lon="6.38153">
        <ele>860.1</ele>
        <time>2024-01-16T09:08:55Z</time>
      </trkpt>
      <trkpt lat="46.17712" lon="6.38171">
        <ele>861.5</ele>
        <time>2024-01-16T09:09:06Z</time>
      </trkpt>
      <trkpt lat="46.17708" lon="6.38189">
        <ele>862.9</ele>
        <time>2024-01-16T09:09:17Z</time>
      </trkpt>
      <trkpt lat="46.17702" lon="6.38217">
        <ele>874.7</ele>
        <time>2024-01-16T09:09:33Z</time>
      </trkpt>
      <trkpt lat="46.17691" lon="6.38243">
        <ele>874.9</ele>
        <time>2024-01-16T09:09:49Z</time>
      </trkpt>
      <trkpt lat="46.17688" lon="6.38257">
        <ele>875.1</ele>
        <time>2024-01-16T09:09:57Z</time>
      </trkpt>
      <trkpt lat="46.17694" lon="6.38327">
        <ele>877.2</ele>
        <time>2024-01-16T09:10:37Z</time>
      </trkpt>
      <trkpt lat="46.1769" lon="6.38345">
        <ele>879.4</ele>
        <time>2024-01-16T09:10:47Z</time>
      </trkpt>
      <trkpt lat="46.17681" lon="6.38326">
        <ele>880.3</ele>
        <time>2024-01-16T09:10:59Z</time>
      </trkpt>
      <trkpt lat="46.17668" lon="6.38294">
        <ele>882.3</ele>
        <time>2024-01-16T09:11:18Z</time>
      </trkpt>
      <trkpt lat="46.17668" lon="6.38293">
        <ele>899.4</ele>
        <time>2024-01-16T09:11:19Z</time>
      </trkpt>
      <trkpt lat="46.17638" lon="6.38264">
        <ele>902.2</ele>
        <time>2024-01-16T09:11:42Z</time>
      </trkpt>
      <trkpt lat="46.17634" lon="6.38242">
        <ele>902.7</ele>
        <time>2024-01-16T09:11:55Z</time>
      </trkpt>
      <trkpt lat="46.17633" lon="6.38187">
        <ele>899.2</ele>
        <time>2024-01-16T09:12:26Z</time>
      </trkpt>
      <trkpt lat="46.17628" lon="6.38162">
        <ele>896.6</ele>
        <time>2024-01-16T09:12:41Z</time>
      </trkpt>
      <trkpt lat="46.17616" lon="6.38133">
        <ele>894.1</ele>
        <time>2024-01-16T09:12:59Z</time>
      </trkpt>
      <trkpt lat="46.17593" lon="6.38108">
        <ele>891.2</ele>
        <time>2024-01-16T09:13:18Z</time>
      </trkpt>
      <trkpt lat="46.1758" lon="6.38105">
        <ele>890.5</ele>
        <time>2024-01-16T09:13:26Z</time>
      </trkpt>
      <trkpt lat="46.17572" lon="6.38103">
        <ele>877.3</ele>
        <time>2024-01-16T09:13:31Z</time>
      </trkpt>
      <trkpt lat="46.17532" lon="6.38126">
        <ele>877.2</ele>
        <time>2024-01-16T09:13:57Z</time>
      </trkpt>
      <trkpt lat="46.17523" lon="6.38116">
        <ele>876.9</ele>
        <time>2024-01-16T09:14:05Z</time>
      </trkpt>
      <trkpt lat="46.1751" lon="6.3812">
        <ele>876.5</ele>
        <time>2024-01-16T09:14:13Z</time>
      </trkpt>
      <trkpt lat="46.17498" lon="6.38119">
        <ele>875.9</ele>
        <time>2024-01-16T09:14:20Z</time>
      </trkpt>
      <trkpt lat="46.17493" lon="6.38122">
        <ele>872.2</ele>
        <time>2024-01-16T09:14:23Z</time>
      </trkpt>
      <trkpt lat="46.17479" lon="6.38113">
        <ele>866.8</ele>
        <time>2024-01-16T09:14:33Z</time>
      </trkpt>
      <trkpt lat="46.17476" lon="6.38119">
        <ele>862.1</ele>
        <time>2024-01-16T09:14:37Z</time>
      </trkpt>
      <trkpt lat="46.1747" lon="6.38122">
        <ele>857.9</ele>
        <time>2024-01-16T09:14:41Z</time>
      </trkpt>
      <trkpt lat="46.17459" lon="6.38091">
        <ele>850.6</ele>
        <time>2024-01-16T09:15:00Z</time>
      </trkpt>
      <trkpt lat="46.17449" lon="6.38102">
        <ele>847.4</ele>
        <time>2024-01-16T09:15:08Z</time>
      </trkpt>
      <trkpt lat="46.17441" lon="6.38116">
        <ele>844.4</ele>
        <time>2024-01-16T09:15:17Z</time>
      </trkpt>
      <trkpt lat="46.17435" lon="6.38119">
        <ele>841.6</ele>
        <time>2024-01-16T09:15:21Z</time>
      </trkpt>
      <trkpt lat="46.17436" lon="6.38103">
        <ele>839</ele>
        <time>2024-01-16T09:15:30Z</time>
      </trkpt>
      <trkpt lat="46.17421" lon="6.38137">
        <ele>827.6</ele>
        <time>2024-01-16T09:15:51Z</time>
      </trkpt>
      <trkpt lat="46.17407" lon="6.38151">
        <ele>822.9</ele>
        <time>2024-01-16T09:16:02Z</time>
      </trkpt>
      <trkpt lat="46.17405" lon="6.38145">
        <ele>818.2</ele>
        <time>2024-01-16T09:16:06Z</time>
      </trkpt>
      <trkpt lat="46.17403" lon="6.38123">
        <ele>813.5</ele>
        <time>2024-01-16T09:16:19Z</time>
      </trkpt>
      <trkpt lat="46.17393" lon="6.38142">
        <ele>808.8</ele>
        <time>2024-01-16T09:16:32Z</time>
      </trkpt>
      <trkpt lat="46.17393" lon="6.3812">
        <ele>804.2</ele>
        <time>2024-01-16T09:16:45Z</time>
      </trkpt>
      <trkpt lat="46.17392" lon="6.38107">
        <ele>799.7</ele>
        <time>2024-01-16T09:16:53Z</time>
      </trkpt>
      <trkpt lat="46.17387" lon="6.38093">
        <ele>783.4</ele>
        <time>2024-01-16T09:17:01Z</time>
      </trkpt>
      <trkpt lat="46.17376" lon="6.38116">
        <ele>783.4</ele>
        <time>2024-01-16T09:17:16Z</time>
      </trkpt>
      <trkpt lat="46.1736" lon="6.38142">
        <ele>783.4</ele>
        <time>2024-01-16T09:17:34Z</time>
      </trkpt>
      <trkpt lat="46.1734" lon="6.38155">
        <ele>782.6</ele>
        <time>2024-01-16T09:17:47Z</time>
      </trkpt>
      <trkpt lat="46.17345" lon="6.38128">
        <ele>782.2</ele>
        <time>2024-01-16T09:18:02Z</time>
      </trkpt>
      <trkpt lat="46.1734" lon="6.38096">
        <ele>781.7</ele>
        <time>2024-01-16T09:18:21Z</time>
      </trkpt>
      <trkpt lat="46.17331" lon="6.38112">
        <ele>781.4</ele>
        <time>2024-01-16T09:18:31Z</time>
      </trkpt>
      <trkpt lat="46.17323" lon="6.38117">
        <ele>781.1</ele>
        <time>2024-01-16T09:18:36Z</time>
      </trkpt>
      <trkpt lat="46.17312" lon="6.38126">
        <ele>776.5</ele>
        <time>2024-01-16T09:18:44Z</time>
      </trkpt>
      <trkpt lat="46.17293" lon="6.38156">
        <ele>775.9</ele>
        <time>2024-01-16T09:19:04Z</time>
      </trkpt>
      <trkpt lat="46.17289" lon="6.38168">
        <ele>776.1</ele>
        <time>2024-01-16T09:19:11Z</time>
      </trkpt>
      <trkpt lat="46.17281" lon="6.38169">
        <ele>770.7</ele>
        <time>2024-01-16T09:19:16Z</time>
      </trkpt>
      <trkpt lat="46.1728" lon="6.38179">
        <ele>766.6</ele>
        <time>2024-01-16T09:19:22Z</time>
      </trkpt>
      <trkpt lat="46.17285" lon="6.38195">
        <ele>763.4</ele>
        <time>2024-01-16T09:19:32Z</time>
      </trkpt>
      <trkpt lat="46.17285" lon="6.38206">
        <ele>760.9</ele>
        <time>2024-01-16T09:19:38Z</time>
      </trkpt>
      <trkpt lat="46.17282" lon="6.38213">
        <ele>758.8</ele>
        <time>2024-01-16T09:19:42Z</time>
      </trkpt>
      <trkpt lat="46.17278" lon="6.38216">
        <ele>757.1</ele>
        <time>2024-01-16T09:19:45Z</time>
      </trkpt>
      <trkpt lat="46.1727" lon="6.38222">
        <ele>738</ele>
        <time>2024-01-16T09:19:50Z</time>
      </trkpt>
      <trkpt lat="46.1727" lon="6.38229">
        <ele>742.6</ele>
        <time>2024-01-16T09:19:54Z</time>
      </trkpt>
      <trkpt lat="46.17263" lon="6.38257">
        <ele>747.7</ele>
        <time>2024-01-16T09:20:10Z</time>
      </trkpt>
      <trkpt lat="46.17259" lon="6.38294">
        <ele>750.4</ele>
        <time>2024-01-16T09:20:31Z</time>
      </trkpt>
      <trkpt lat="46.17249" lon="6.38336">
        <ele>753</ele>
        <time>2024-01-16T09:20:56Z</time>
      </trkpt>
      <trkpt lat="46.17233" lon="6.38347">
        <ele>753.8</ele>
        <time>2024-01-16T09:21:07Z</time>
      </trkpt>
      <trkpt lat="46.17221" lon="6.38362">
        <ele>754.5</ele>
        <time>2024-01-16T09:21:18Z</time>
      </trkpt>
      <trkpt lat="46.17195" lon="6.38423">
        <ele>758.9</ele>
        <time>2024-01-16T09:21:56Z</time>
      </trkpt>
      <trkpt lat="46.17179" lon="6.38451">
        <ele>761</ele>
        <time>2024-01-16T09:22:15Z</time>
      </trkpt>
      <trkpt lat="46.1717" lon="6.38466">
        <ele>781.9</ele>
        <time>2024-01-16T09:22:25Z</time>
      </trkpt>
      <trkpt lat="46.17164" lon="6.38469">
        <ele>782.8</ele>
        <time>2024-01-16T09:22:29Z</time>
      </trkpt>
      <trkpt lat="46.17136" lon="6.38469">
        <ele>784.9</ele>
        <time>2024-01-16T09:22:45Z</time>
      </trkpt>
      <trkpt lat="46.17121" lon="6.38479">
        <ele>785.8</ele>
        <time>2024-01-16T09:22:56Z</time>
      </trkpt>
      <trkpt lat="46.171" lon="6.3851">
        <ele>788.7</ele>
        <time>2024-01-16T09:23:17Z</time>
      </trkpt>
      <trkpt lat="46.17084" lon="6.38526">
        <ele>790.2</ele>
        <time>2024-01-16T09:23:30Z</time>
      </trkpt>
      <trkpt lat="46.17074" lon="6.38527">
        <ele>790.9</ele>
        <time>2024-01-16T09:23:36Z</time>
      </trkpt>
      <trkpt lat="46.17046" lon="6.38502">
        <ele>792.3</ele>
        <time>2024-01-16T09:23:57Z</time>
      </trkpt>
      <trkpt lat="46.1701" lon="6.38492">
        <ele>794.4</ele>
        <time>2024-01-16T09:24:19Z</time>
      </trkpt>
      <trkpt lat="46.16976" lon="6.38478">
        <ele>799</ele>
        <time>2024-01-16T09:24:40Z</time>
      </trkpt>
      <trkpt lat="46.16948" lon="6.38462">
        <ele>823.3</ele>
        <time>2024-01-16T09:24:58Z</time>
      </trkpt>
      <trkpt lat="46.16911" lon="6.38513">
        <ele>829.8</ele>
        <time>2024-01-16T09:25:34Z</time>
      </trkpt>
      <trkpt lat="46.16888" lon="6.38535">
        <ele>832.5</ele>
        <time>2024-01-16T09:25:52Z</time>
      </trkpt>
      <trkpt lat="46.16876" lon="6.38537">
        <ele>834.4</ele>
        <time>2024-01-16T09:25:59Z</time>
      </trkpt>
      <trkpt lat="46.16866" lon="6.38531">
        <ele>836.6</ele>
        <time>2024-01-16T09:26:05Z</time>
      </trkpt>
      <trkpt lat="46.16856" lon="6.38532">
        <ele>838.6</ele>
        <time>2024-01-16T09:26:10Z</time>
      </trkpt>
      <trkpt lat="46.16845" lon="6.38542">
        <ele>840.5</ele>
        <time>2024-01-16T09:26:18Z</time>
      </trkpt>
      <trkpt lat="46.16836" lon="6.3854">
        <ele>842.5</ele>
        <time>2024-01-16T09:26:24Z</time>
      </trkpt>
      <trkpt lat="46.16805" lon="6.38511">
        <ele>849.6</ele>
        <time>2024-01-16T09:26:48Z</time>
      </trkpt>
      <trkpt lat="46.16799" lon="6.38508">
        <ele>852.6</ele>
        <time>2024-01-16T09:26:52Z</time>
      </trkpt>
      <trkpt lat="46.16785" lon="6.38512">
        <ele>855.6</ele>
        <time>2024-01-16T09:27:00Z</time>
      </trkpt>
      <trkpt lat="46.16772" lon="6.3851">
        <ele>858.6</ele>
        <time>2024-01-16T09:27:07Z</time>
      </trkpt>
      <trkpt lat="46.1676" lon="6.38499">
        <ele>861.5</ele>
        <time>2024-01-16T09:27:16Z</time>
      </trkpt>
      <trkpt lat="46.16754" lon="6.38495">
        <ele>884.1</ele>
        <time>2024-01-16T09:27:20Z</time>
      </trkpt>
      <trkpt lat="46.16744" lon="6.38471">
        <ele>884.8</ele>
        <time>2024-01-16T09:27:35Z</time>
      </trkpt>
      <trkpt lat="46.16721" lon="6.38455">
        <ele>885.4</ele>
        <time>2024-01-16T09:27:51Z</time>
      </trkpt>
      <trkpt lat="46.16717" lon="6.38448">
        <ele>885.5</ele>
        <time>2024-01-16T09:27:55Z</time>
      </trkpt>
      <trkpt lat="46.16711" lon="6.38423">
        <ele>885.4</ele>
        <time>2024-01-16T09:28:10Z</time>
      </trkpt>
      <trkpt lat="46.16709" lon="6.38363">
        <ele>885</ele>
        <time>2024-01-16T09:28:45Z</time>
      </trkpt>
      <trkpt lat="46.16706" lon="6.38354">
        <ele>885</ele>
        <time>2024-01-16T09:28:50Z</time>
      </trkpt>
      <trkpt lat="46.16696" lon="6.3834">
        <ele>884.9</ele>
        <time>2024-01-16T09:29:00Z</time>
      </trkpt>
      <trkpt lat="46.16691" lon="6.38327">
        <ele>883.9</ele>
        <time>2024-01-16T09:29:08Z</time>
      </trkpt>
      <trkpt lat="46.1669" lon="6.38325">
        <ele>860.8</ele>
        <time>2024-01-16T09:29:09Z</time>
      </trkpt>
      <trkpt lat="46.16687" lon="6.38317">
        <ele>858.2</ele>
        <time>2024-01-16T09:29:14Z</time>
      </trkpt>
      <trkpt lat="46.16665" lon="6.3834">
        <ele>868.3</ele>
        <time>2024-01-16T09:29:32Z</time>
      </trkpt>
      <trkpt lat="46.16662" lon="6.38338">
        <ele>871.7</ele>
        <time>2024-01-16T09:29:34Z</time>
      </trkpt>
      <trkpt lat="46.16661" lon="6.38346">
        <ele>874.3</ele>
        <time>2024-01-16T09:29:39Z</time>
      </trkpt>
      <trkpt lat="46.16663" lon="6.38356">
        <ele>876.5</ele>
        <time>2024-01-16T09:29:45Z</time>
      </trkpt>
      <trkpt lat="46.16661" lon="6.38363">
        <ele>878.4</ele>
        <time>2024-01-16T09:29:49Z</time>
      </trkpt>
      <trkpt lat="46.16642" lon="6.38392">
        <ele>882.5</ele>
        <time>2024-01-16T09:30:09Z</time>
      </trkpt>
      <trkpt lat="46.16619" lon="6.38406">
        <ele>884.4</ele>
        <time>2024-01-16T09:30:24Z</time>
      </trkpt>
      <trkpt lat="46.16609" lon="6.38425">
        <ele>887.5</ele>
        <time>2024-01-16T09:30:37Z</time>
      </trkpt>
      <trkpt lat="46.16593" lon="6.38426">
        <ele>890.2</ele>
        <time>2024-01-16T09:30:46Z</time>
      </trkpt>
      <trkpt lat="46.16569" lon="6.38426">
        <ele>932.3</ele>
        <time>2024-01-16T09:30:59Z</time>
      </trkpt>
      <trkpt lat="46.16549" lon="6.3843">
        <ele>932.2</ele>
        <time>2024-01-16T09:31:11Z</time>
      </trkpt>
      <trkpt lat="46.16532" lon="6.38425">
        <ele>932.4</ele>
        <time>2024-01-16T09:31:21Z</time>
      </trkpt>
      <trkpt lat="46.16517" lon="6.38416">
        <ele>932.3</ele>
        <time>2024-01-16T09:31:31Z</time>
      </trkpt>
      <trkpt lat="46.16496" lon="6.38413">
        <ele>931.7</ele>
        <time>2024-01-16T09:31:43Z</time>
      </trkpt>
      <trkpt lat="46.16485" lon="6.38426">
        <ele>931.3</ele>
        <time>2024-01-16T09:31:53Z</time>
      </trkpt>
      <trkpt lat="46.16485" lon="6.38432">
        <ele>931</ele>
        <time>2024-01-16T09:31:56Z</time>
      </trkpt>
      <trkpt lat="46.16491" lon="6.38438">
        <ele>930.7</ele>
        <time>2024-01-16T09:32:01Z</time>
      </trkpt>
      <trkpt lat="46.16497" lon="6.38452">
        <ele>930.4</ele>
        <time>2024-01-16T09:32:10Z</time>
      </trkpt>
      <trkpt lat="46.16508" lon="6.38466">
        <ele>930.2</ele>
        <time>2024-01-16T09:32:20Z</time>
      </trkpt>
      <trkpt lat="46.1651" lon="6.38497">
        <ele>931.2</ele>
        <time>2024-01-16T09:32:37Z</time>
      </trkpt>
      <trkpt lat="46.16546" lon="6.38489">
        <ele>933.6</ele>
        <time>2024-01-16T09:32:58Z</time>
      </trkpt>
      <trkpt lat="46.1655" lon="6.38488">
        <ele>946.8</ele>
        <time>2024-01-16T09:33:01Z</time>
      </trkpt>
      <trkpt lat="46.16559" lon="6.38488">
        <ele>947</ele>
        <time>2024-01-16T09:33:06Z</time>
      </trkpt>
      <trkpt lat="46.16592" lon="6.38503">
        <ele>947.6</ele>
        <time>2024-01-16T09:33:27Z</time>
      </trkpt>
      <trkpt lat="46.16615" lon="6.38527">
        <ele>948.4</ele>
        <time>2024-01-16T09:33:46Z</time>
      </trkpt>
      <trkpt lat="46.16625" lon="6.38542">
        <ele>949.5</ele>
        <time>2024-01-16T09:33:56Z</time>
      </trkpt>
      <trkpt lat="46.16647" lon="6.38583">
        <ele>951.8</ele>
        <time>2024-01-16T09:34:22Z</time>
      </trkpt>
      <trkpt lat="46.16666" lon="6.3862">
        <ele>959.8</ele>
        <time>2024-01-16T09:34:46Z</time>
      </trkpt>
      <trkpt lat="46.16682" lon="6.38616">
        <ele>958</ele>
        <time>2024-01-16T09:34:55Z</time>
      </trkpt>
      <trkpt lat="46.1669" lon="6.38617">
        <ele>956.8</ele>
        <time>2024-01-16T09:35:00Z</time>
      </trkpt>
      <trkpt lat="46.16704" lon="6.38616">
        <ele>955.9</ele>
        <time>2024-01-16T09:35:08Z</time>
      </trkpt>
      <trkpt lat="46.16715" lon="6.38617">
        <ele>955.2</ele>
        <time>2024-01-16T09:35:14Z</time>
      </trkpt>
      <trkpt lat="46.16722" lon="6.3862">
        <ele>954.6</ele>
        <time>2024-01-16T09:35:19Z</time>
      </trkpt>
      <trkpt lat="46.16725" lon="6.38621">
        <ele>949.8</ele>
        <time>2024-01-16T09:35:21Z</time>
      </trkpt>
      <trkpt lat="46.16738" lon="6.38643">
        <ele>949.4</ele>
        <time>2024-01-16T09:35:35Z</time>
      </trkpt>
      <trkpt lat="46.16762" lon="6.38663">
        <ele>949</ele>
        <time>2024-01-16T09:35:53Z</time>
      </trkpt>
      <trkpt lat="46.1678" lon="6.38686">
        <ele>949</ele>
        <time>2024-01-16T09:36:09Z</time>
      </trkpt>
      <trkpt lat="46.16796" lon="6.387">
        <ele>949.1</ele>
        <time>2024-01-16T09:36:22Z</time>
      </trkpt>
      <trkpt lat="46.16797" lon="6.38708">
        <ele>948.9</ele>
        <time>2024-01-16T09:36:26Z</time>
      </trkpt>
      <trkpt lat="46.16802" lon="6.38705">
        <ele>948</ele>
        <time>2024-01-16T09:36:29Z</time>
      </trkpt>
      <trkpt lat="46.1682" lon="6.38709">
        <ele>946.9</ele>
        <time>2024-01-16T09:36:39Z</time>
      </trkpt>
      <trkpt lat="46.16829" lon="6.38707">
        <ele>945.9</ele>
        <time>2024-01-16T09:36:45Z</time>
      </trkpt>
      <trkpt lat="46.16849" lon="6.38704">
        <ele>931.1</ele>
        <time>2024-01-16T09:36:56Z</time>
      </trkpt>
      <trkpt lat="46.16886" lon="6.38689">
        <ele>930.8</ele>
        <time>2024-01-16T09:37:19Z</time>
      </trkpt>
      <trkpt lat="46.16895" lon="6.38688">
        <ele>930.8</ele>
        <time>2024-01-16T09:37:24Z</time>
      </trkpt>
      <trkpt lat="46.16903" lon="6.38691">
        <ele>930.8</ele>
        <time>2024-01-16T09:37:29Z</time>
      </trkpt>
      <trkpt lat="46.16914" lon="6.38698">
        <ele>930.8</ele>
        <time>2024-01-16T09:37:36Z</time>
      </trkpt>
      <trkpt lat="46.16918" lon="6.38699">
        <ele>930.7</ele>
        <time>2024-01-16T09:37:39Z</time>
      </trkpt>
      <trkpt lat="46.1694" lon="6.38701">
        <ele>929.5</ele>
        <time>2024-01-16T09:37:51Z</time>
      </trkpt>
      <trkpt lat="46.16943" lon="6.38717">
        <ele>928.1</ele>
        <time>2024-01-16T09:38:00Z</time>
      </trkpt>
      <trkpt lat="46.16952" lon="6.3872">
        <ele>927.7</ele>
        <time>2024-01-16T09:38:05Z</time>
      </trkpt>
      <trkpt lat="46.16966" lon="6.3873">
        <ele>927.4</ele>
        <time>2024-01-16T09:38:15Z</time>
      </trkpt>
      <trkpt lat="46.16975" lon="6.38742">
        <ele>926.2</ele>
        <time>2024-01-16T09:38:23Z</time>
      </trkpt>
      <trkpt lat="46.16983" lon="6.3876">
        <ele>927.9</ele>
        <time>2024-01-16T09:38:34Z</time>
      </trkpt>
      <trkpt lat="46.17" lon="6.38764">
        <ele>925.2</ele>
        <time>2024-01-16T09:38:44Z</time>
      </trkpt>
      <trkpt lat="46.17026" lon="6.38753">
        <ele>921.3</ele>
        <time>2024-01-16T09:39:00Z</time>
      </trkpt>
      <trkpt lat="46.17048" lon="6.38752">
        <ele>918.8</ele>
        <time>2024-01-16T09:39:12Z</time>
      </trkpt>
      <trkpt lat="46.17048" lon="6.38752">
        <ele>909.7</ele>
        <time>2024-01-16T09:39:13Z</time>
      </trkpt>
      <trkpt lat="46.17099" lon="6.38722">
        <ele>908.7</ele>
        <time>2024-01-16T09:39:47Z</time>
      </trkpt>
      <trkpt lat="46.17124" lon="6.38727">
        <ele>908.1</ele>
        <time>2024-01-16T09:40:01Z</time>
      </trkpt>
      <trkpt lat="46.17146" lon="6.38721">
        <ele>907.7</ele>
        <time>2024-01-16T09:40:14Z</time>
      </trkpt>
      <trkpt lat="46.17194" lon="6.38702">
        <ele>907.8</ele>
        <time>2024-01-16T09:40:44Z</time>
      </trkpt>
      <trkpt lat="46.17223" lon="6.38704">
        <ele>908.2</ele>
        <time>2024-01-16T09:41:00Z</time>
      </trkpt>
      <trkpt lat="46.17242" lon="6.38705">
        <ele>910.8</ele>
        <time>2024-01-16T09:41:11Z</time>
      </trkpt>
      <trkpt lat="46.17306" lon="6.38713">
        <ele>918.6</ele>
        <time>2024-01-16T09:41:48Z</time>
      </trkpt>
      <trkpt lat="46.17338" lon="6.38718">
        <ele>923.8</ele>
        <time>2024-01-16T09:42:06Z</time>
      </trkpt>
      <trkpt lat="46.17346" lon="6.38718">
        <ele>925.4</ele>
        <time>2024-01-16T09:42:10Z</time>
      </trkpt>
      <trkpt lat="46.17377" lon="6.38719">
        <ele>946.2</ele>
        <time>2024-01-16T09:42:27Z</time>
      </trkpt>
      <trkpt lat="46.17398" lon="6.38727">
        <ele>945.8</ele>
        <time>2024-01-16T09:42:40Z</time>
      </trkpt>
      <trkpt lat="46.17405" lon="6.38736">
        <ele>946.6</ele>
        <time>2024-01-16T09:42:47Z</time>
      </trkpt>
      <trkpt lat="46.17391" lon="6.38745">
        <ele>945.4</ele>
        <time>2024-01-16T09:42:56Z</time>
      </trkpt>
      <trkpt lat="46.1736" lon="6.38756">
        <ele>943</ele>
        <time>2024-01-16T09:43:15Z</time>
      </trkpt>
      <trkpt lat="46.17354" lon="6.38758">
        <ele>935.9</ele>
        <time>2024-01-16T09:43:19Z</time>
      </trkpt>
      <trkpt lat="46.17294" lon="6.38769">
        <ele>933.9</ele>
        <time>2024-01-16T09:43:54Z</time>
      </trkpt>
      <trkpt lat="46.17279" lon="6.38774">
        <ele>933.6</ele>
        <time>2024-01-16T09:44:03Z</time>
      </trkpt>
      <trkpt lat="46.17231" lon="6.38801">
        <ele>932.1</ele>
        <time>2024-01-16T09:44:35Z</time>
      </trkpt>
      <trkpt lat="46.17185" lon="6.38815">
        <ele>930.4</ele>
        <time>2024-01-16T09:45:02Z</time>
      </trkpt>
      <trkpt lat="46.17057" lon="6.38877">
        <ele>917.5</ele>
        <time>2024-01-16T09:46:23Z</time>
      </trkpt>
      <trkpt lat="46.17036" lon="6.38882">
        <ele>915.2</ele>
        <time>2024-01-16T09:46:35Z</time>
      </trkpt>
      <trkpt lat="46.1701" lon="6.38888">
        <ele>902.7</ele>
        <time>2024-01-16T09:46:50Z</time>
      </trkpt>
      <trkpt lat="46.16975" lon="6.38919">
        <ele>901.9</ele>
        <time>2024-01-16T09:47:16Z</time>
      </trkpt>
      <trkpt lat="46.16946" lon="6.38938">
        <ele>897.6</ele>
        <time>2024-01-16T09:47:35Z</time>
      </trkpt>
      <trkpt lat="46.16929" lon="6.38948">
        <ele>894.9</ele>
        <time>2024-01-16T09:47:46Z</time>
      </trkpt>
      <trkpt lat="46.16922" lon="6.38952">
        <ele>893.8</ele>
        <time>2024-01-16T09:47:51Z</time>
      </trkpt>
      <trkpt lat="46.169" lon="6.38963">
        <ele>881</ele>
        <time>2024-01-16T09:48:05Z</time>
      </trkpt>
      <trkpt lat="46.16901" lon="6.38967">
        <ele>881</ele>
        <time>2024-01-16T09:48:07Z</time>
      </trkpt>
      <trkpt lat="46.16903" lon="6.38978">
        <ele>881</ele>
        <time>2024-01-16T09:48:13Z</time>
      </trkpt>
      <trkpt lat="46.16904" lon="6.39004">
        <ele>876.5</ele>
        <time>2024-01-16T09:48:28Z</time>
      </trkpt>
      <trkpt lat="46.16899" lon="6.39041">
        <ele>872.9</ele>
        <time>2024-01-16T09:48:49Z</time>
      </trkpt>
      <trkpt lat="46.16899" lon="6.39044">
        <ele>860.8</ele>
        <time>2024-01-16T09:48:51Z</time>
      </trkpt>
      <trkpt lat="46.16899" lon="6.39061">
        <ele>858.5</ele>
        <time>2024-01-16T09:49:00Z</time>
      </trkpt>
      <trkpt lat="46.16875" lon="6.39099">
        <ele>851.7</ele>
        <time>2024-01-16T09:49:26Z</time>
      </trkpt>
      <trkpt lat="46.16868" lon="6.39099">
        <ele>850</ele>
        <time>2024-01-16T09:49:30Z</time>
      </trkpt>
      <trkpt lat="46.16853" lon="6.39093">
        <ele>848.6</ele>
        <time>2024-01-16T09:49:40Z</time>
      </trkpt>
      <trkpt lat="46.16845" lon="6.39094">
        <ele>847.3</ele>
        <time>2024-01-16T09:49:44Z</time>
      </trkpt>
      <trkpt lat="46.16808" lon="6.39116">
        <ele>844.3</ele>
        <time>2024-01-16T09:50:09Z</time>
      </trkpt>
      <trkpt lat="46.16806" lon="6.39117">
        <ele>837.4</ele>
        <time>2024-01-16T09:50:10Z</time>
      </trkpt>
      <trkpt lat="46.16787" lon="6.39144">
        <ele>837.7</ele>
        <time>2024-01-16T09:50:29Z</time>
      </trkpt>
      <trkpt lat="46.16771" lon="6.39157">
        <ele>836.7</ele>
        <time>2024-01-16T09:50:41Z</time>
      </trkpt>
      <trkpt lat="46.16728" lon="6.39182">
        <ele>832.6</ele>
        <time>2024-01-16T09:51:09Z</time>
      </trkpt>
      <trkpt lat="46.16705" lon="6.392">
        <ele>831</ele>
        <time>2024-01-16T09:51:25Z</time>
      </trkpt>
      <trkpt lat="46.16674" lon="6.39231">
        <ele>828.3</ele>
        <time>2024-01-16T09:51:50Z</time>
      </trkpt>
      <trkpt lat="46.16608" lon="6.39306">
        <ele>818.9</ele>
        <time>2024-01-16T09:52:47Z</time>
      </trkpt>
      <trkpt lat="46.16595" lon="6.39322">
        <ele>809.1</ele>
        <time>2024-01-16T09:52:59Z</time>
      </trkpt>
      <trkpt lat="46.16573" lon="6.39342">
        <ele>807</ele>
        <time>2024-01-16T09:53:16Z</time>
      </trkpt>
      <trkpt lat="46.16568" lon="6.39348">
        <ele>806.5</ele>
        <time>2024-01-16T09:53:20Z</time>
      </trkpt>
      <trkpt lat="46.16559" lon="6.39367">
        <ele>806.1</ele>
        <time>2024-01-16T09:53:32Z</time>
      </trkpt>
      <trkpt lat="46.16557" lon="6.39377">
        <ele>805.8</ele>
        <time>2024-01-16T09:53:37Z</time>
      </trkpt>
      <trkpt lat="46.16556" lon="6.39395">
        <ele>804.8</ele>
        <time>2024-01-16T09:53:48Z</time>
      </trkpt>
      <trkpt lat="46.16542" lon="6.39404">
        <ele>802.8</ele>
        <time>2024-01-16T09:53:58Z</time>
      </trkpt>
      <trkpt lat="46.16494" lon="6.39419">
        <ele>795.8</ele>
        <time>2024-01-16T09:54:27Z</time>
      </trkpt>
      <trkpt lat="46.16488" lon="6.39421">
        <ele>794.8</ele>
        <time>2024-01-16T09:54:30Z</time>
      </trkpt>
      <trkpt lat="46.16484" lon="6.39426">
        <ele>794</ele>
        <time>2024-01-16T09:54:33Z</time>
      </trkpt>
      <trkpt lat="46.16473" lon="6.39442">
        <ele>793.2</ele>
        <time>2024-01-16T09:54:44Z</time>
      </trkpt>
      <trkpt lat="46.16431" lon="6.39504">
        <ele>780.5</ele>
        <time>2024-01-16T09:55:27Z</time>
      </trkpt>
      <trkpt lat="46.16427" lon="6.39514">
        <ele>780.4</ele>
        <time>2024-01-16T09:55:33Z</time>
      </trkpt>
      <trkpt lat="46.16425" lon="6.39525">
        <ele>780.4</ele>
        <time>2024-01-16T09:55:39Z</time>
      </trkpt>
      <trkpt lat="46.16427" lon="6.39574">
        <ele>779.6</ele>
        <time>2024-01-16T09:56:07Z</time>
      </trkpt>
      <trkpt lat="46.1643" lon="6.39599">
        <ele>778.7</ele>
        <time>2024-01-16T09:56:22Z</time>
      </trkpt>
      <trkpt lat="46.1643" lon="6.39612">
        <ele>778.2</ele>
        <time>2024-01-16T09:56:29Z</time>
      </trkpt>
      <trkpt lat="46.16421" lon="6.3967">
        <ele>776.8</ele>
        <time>2024-01-16T09:57:03Z</time>
      </trkpt>
      <trkpt lat="46.1642" lon="6.39677">
        <ele>771.4</ele>
        <time>2024-01-16T09:57:07Z</time>
      </trkpt>
      <trkpt lat="46.16415" lon="6.39692">
        <ele>767.9</ele>
        <time>2024-01-16T09:57:16Z</time>
      </trkpt>
      <trkpt lat="46.16385" lon="6.39667">
        <ele>762.8</ele>
        <time>2024-01-16T09:57:38Z</time>
      </trkpt>
      <trkpt lat="46.16365" lon="6.39652">
        <ele>761</ele>
        <time>2024-01-16T09:57:53Z</time>
      </trkpt>
      <trkpt lat="46.16343" lon="6.39635">
        <ele>755.4</ele>
        <time>2024-01-16T09:58:09Z</time>
      </trkpt>
      <trkpt lat="46.16335" lon="6.39619">
        <ele>755.3</ele>
        <time>2024-01-16T09:58:19Z</time>
      </trkpt>
      <trkpt lat="46.16324" lon="6.39583">
        <ele>755</ele>
        <time>2024-01-16T09:58:41Z</time>
      </trkpt>
      <trkpt lat="46.16323" lon="6.39577">
        <ele>754.8</ele>
        <time>2024-01-16T09:58:45Z</time>
      </trkpt>
      <trkpt lat="46.16322" lon="6.39567">
        <ele>753.9</ele>
        <time>2024-01-16T09:58:51Z</time>
      </trkpt>
      <trkpt lat="46.16322" lon="6.39532">
        <ele>753.4</ele>
        <time>2024-01-16T09:59:11Z</time>
      </trkpt>
      <trkpt lat="46.16317" lon="6.39476">
        <ele>752.9</ele>
        <time>2024-01-16T09:59:43Z</time>
      </trkpt>
      <trkpt lat="46.16314" lon="6.39473">
        <ele>752.8</ele>
        <time>2024-01-16T09:59:46Z</time>
      </trkpt>
      <trkpt lat="46.16306" lon="6.3947">
        <ele>752.7</ele>
        <time>2024-01-16T09:59:51Z</time>
      </trkpt>
      <trkpt lat="46.16303" lon="6.3947">
        <ele>752.1</ele>
        <time>2024-01-16T09:59:52Z</time>
      </trkpt>
      <trkpt lat="46.16295" lon="6.39463">
        <ele>752</ele>
        <time>2024-01-16T09:59:58Z</time>
      </trkpt>
      <trkpt lat="46.16286" lon="6.39451">
        <ele>751.9</ele>
        <time>2024-01-16T10:00:06Z</time>
      </trkpt>
      <trkpt lat="46.16278" lon="6.39438">
        <ele>751.8</ele>
        <time>2024-01-16T10:00:15Z</time>
      </trkpt>
      <trkpt lat="46.16271" lon="6.39418">
        <ele>751.7</ele>
        <time>2024-01-16T10:00:27Z</time>
      </trkpt>
      <trkpt lat="46.16264" lon="6.39403">
        <ele>752.5</ele>
        <time>2024-01-16T10:00:37Z</time>
      </trkpt>
      <trkpt lat="46.16268" lon="6.39454">
        <ele>753.1</ele>
        <time>2024-01-16T10:01:07Z</time>
      </trkpt>
      <trkpt lat="46.16273" lon="6.39504">
        <ele>751.1</ele>
        <time>2024-01-16T10:01:36Z</time>
      </trkpt>
      <trkpt lat="46.16272" lon="6.39517">
        <ele>750.6</ele>
        <time>2024-01-16T10:01:43Z</time>
      </trkpt>
      <trkpt lat="46.1627" lon="6.39527">
        <ele>750.2</ele>
        <time>2024-01-16T10:01:49Z</time>
      </trkpt>
      <trkpt lat="46.16264" lon="6.39542">
        <ele>749.6</ele>
        <time>2024-01-16T10:01:58Z</time>
      </trkpt>
      <trkpt lat="46.16249" lon="6.3957">
        <ele>748.6</ele>
        <time>2024-01-16T10:02:16Z</time>
      </trkpt>
      <trkpt lat="46.1617" lon="6.39682">
        <ele>742.6</ele>
        <time>2024-01-16T10:03:34Z</time>
      </trkpt>
      <trkpt lat="46.16139" lon="6.39752">
        <ele>737.4</ele>
        <time>2024-01-16T10:04:17Z</time>
      </trkpt>
      <trkpt lat="46.16135" lon="6.39775">
        <ele>736.4</ele>
        <time>2024-01-16T10:04:30Z</time>
      </trkpt>
      <trkpt lat="46.16135" lon="6.39777">
        <ele>735.3</ele>
        <time>2024-01-16T10:04:31Z</time>
      </trkpt>
      <trkpt lat="46.16122" lon="6.39776">
        <ele>734</ele>
        <time>2024-01-16T10:04:38Z</time>
      </trkpt>
      <trkpt lat="46.16108" lon="6.39779">
        <ele>732.7</ele>
        <time>2024-01-16T10:04:46Z</time>
      </trkpt>
      <trkpt lat="46.16083" lon="6.39792">
        <ele>728.8</ele>
        <time>2024-01-16T10:05:02Z</time>
      </trkpt>
      <trkpt lat="46.16049" lon="6.39835">
        <ele>722.7</ele>
        <time>2024-01-16T10:05:33Z</time>
      </trkpt>
      <trkpt lat="46.16047" lon="6.39838">
        <ele>721.6</ele>
        <time>2024-01-16T10:05:35Z</time>
      </trkpt>
      <trkpt lat="46.16044" lon="6.39847">
        <ele>712.1</ele>
        <time>2024-01-16T10:05:40Z</time>
      </trkpt>
      <trkpt lat="46.16038" lon="6.39855">
        <ele>712.1</ele>
        <time>2024-01-16T10:05:46Z</time>
      </trkpt>
      <trkpt lat="46.16012" lon="6.39886">
        <ele>711.2</ele>
        <time>2024-01-16T10:06:09Z</time>
      </trkpt>
      <trkpt lat="46.15999" lon="6.3989">
        <ele>710.7</ele>
        <time>2024-01-16T10:06:17Z</time>
      </trkpt>
      <trkpt lat="46.15959" lon="6.39896">
        <ele>708.4</ele>
        <time>2024-01-16T10:06:40Z</time>
      </trkpt>
      <trkpt lat="46.15938" lon="6.39907">
        <ele>707.2</ele>
        <time>2024-01-16T10:06:53Z</time>
      </trkpt>
      <trkpt lat="46.15906" lon="6.39906">
        <ele>705.2</ele>
        <time>2024-01-16T10:07:11Z</time>
      </trkpt>
      <trkpt lat="46.15892" lon="6.3991">
        <ele>704.5</ele>
        <time>2024-01-16T10:07:20Z</time>
      </trkpt>
      <trkpt lat="46.15887" lon="6.39913">
        <ele>703.9</ele>
        <time>2024-01-16T10:07:23Z</time>
      </trkpt>
      <trkpt lat="46.15853" lon="6.39932">
        <ele>691.9</ele>
        <time>2024-01-16T10:07:45Z</time>
      </trkpt>
      <trkpt lat="46.15824" lon="6.3997">
        <ele>691.6</ele>
        <time>2024-01-16T10:08:12Z</time>
      </trkpt>
      <trkpt lat="46.15805" lon="6.4">
        <ele>688.3</ele>
        <time>2024-01-16T10:08:32Z</time>
      </trkpt>
      <trkpt lat="46.15775" lon="6.40068">
        <ele>681.5</ele>
        <time>2024-01-16T10:09:15Z</time>
      </trkpt>
      <trkpt lat="46.15742" lon="6.40119">
        <ele>674.5</ele>
        <time>2024-01-16T10:09:50Z</time>
      </trkpt>
      <trkpt lat="46.1569" lon="6.40197">
        <ele>652.9</ele>
        <time>2024-01-16T10:10:43Z</time>
      </trkpt>
      <trkpt lat="46.15674" lon="6.40203">
        <ele>652.3</ele>
        <time>2024-01-16T10:10:53Z</time>
      </trkpt>
      <trkpt lat="46.15659" lon="6.40201">
        <ele>651.8</ele>
        <time>2024-01-16T10:11:01Z</time>
      </trkpt>
      <trkpt lat="46.15646" lon="6.40206">
        <ele>651.3</ele>
        <time>2024-01-16T10:11:09Z</time>
      </trkpt>
      <trkpt lat="46.15643" lon="6.40211">
        <ele>651</ele>
        <time>2024-01-16T10:11:12Z</time>
      </trkpt>
      <trkpt lat="46.1564" lon="6.40217">
        <ele>646.6</ele>
        <time>2024-01-16T10:11:16Z</time>
      </trkpt>
      <trkpt lat="46.1564" lon="6.40248">
        <ele>646.7</ele>
        <time>2024-01-16T10:11:34Z</time>
      </trkpt>
      <trkpt lat="46.15648" lon="6.4026">
        <ele>646.8</ele>
        <time>2024-01-16T10:11:43Z</time>
      </trkpt>
      <trkpt lat="46.1566" lon="6.40268">
        <ele>646.8</ele>
        <time>2024-01-16T10:11:51Z</time>
      </trkpt>
      <trkpt lat="46.15662" lon="6.40272">
        <ele>646.8</ele>
        <time>2024-01-16T10:11:54Z</time>
      </trkpt>
      <trkpt lat="46.15662" lon="6.40278">
        <ele>646.9</ele>
        <time>2024-01-16T10:11:57Z</time>
      </trkpt>
      <trkpt lat="46.1566" lon="6.40284">
        <ele>646.9</ele>
        <time>2024-01-16T10:12:01Z</time>
      </trkpt>
      <trkpt lat="46.1565" lon="6.40294">
        <ele>646.9</ele>
        <time>2024-01-16T10:12:09Z</time>
      </trkpt>
      <trkpt lat="46.15639" lon="6.40306">
        <ele>646.9</ele>
        <time>2024-01-16T10:12:18Z</time>
      </trkpt>
      <trkpt lat="46.15635" lon="6.4031">
        <ele>647.1</ele>
        <time>2024-01-16T10:12:22Z</time>
      </trkpt>
      <trkpt lat="46.15618" lon="6.40328">
        <ele>650.9</ele>
        <time>2024-01-16T10:12:36Z</time>
      </trkpt>
      <trkpt lat="46.15609" lon="6.40334">
        <ele>651.2</ele>
        <time>2024-01-16T10:12:42Z</time>
      </trkpt>
      <trkpt lat="46.15595" lon="6.40338">
        <ele>651.2</ele>
        <time>2024-01-16T10:12:50Z</time>
      </trkpt>
      <trkpt lat="46.15527" lon="6.40341">
        <ele>651.3</ele>
        <time>2024-01-16T10:13:29Z</time>
      </trkpt>
      <trkpt lat="46.15504" lon="6.40336">
        <ele>651.4</ele>
        <time>2024-01-16T10:13:42Z</time>
      </trkpt>
      <trkpt lat="46.15481" lon="6.40324">
        <ele>651.4</ele>
        <time>2024-01-16T10:13:57Z</time>
      </trkpt>
      <trkpt lat="46.15469" lon="6.40324">
        <ele>651.4</ele>
        <time>2024-01-16T10:14:04Z</time>
      </trkpt>
      <trkpt lat="46.1546" lon="6.40329">
        <ele>651.5</ele>
        <time>2024-01-16T10:14:10Z</time>
      </trkpt>
      <trkpt lat="46.15454" lon="6.40338">
        <ele>651.6</ele>
        <time>2024-01-16T10:14:16Z</time>
      </trkpt>
      <trkpt lat="46.15445" lon="6.40361">
        <ele>651.7</ele>
        <time>2024-01-16T10:14:30Z</time>
      </trkpt>
      <trkpt lat="46.15415" lon="6.40423">
        <ele>652.6</ele>
        <time>2024-01-16T10:15:09Z</time>
      </trkpt>
      <trkpt lat="46.15396" lon="6.40459">
        <ele>653.4</ele>
        <time>2024-01-16T10:15:32Z</time>
      </trkpt>
      <trkpt lat="46.1537" lon="6.40508">
        <ele>658.4</ele>
        <time>2024-01-16T10:16:04Z</time>
      </trkpt>
      <trkpt lat="46.15295" lon="6.40605">
        <ele>660.8</ele>
        <time>2024-01-16T10:17:14Z</time>
      </trkpt>
      <trkpt lat="46.15275" lon="6.40612">
        <ele>661.1</ele>
        <time>2024-01-16T10:17:26Z</time>
      </trkpt>
      <trkpt lat="46.15265" lon="6.40618">
        <ele>661.1</ele>
        <time>2024-01-16T10:17:32Z</time>
      </trkpt>
      <trkpt lat="46.15221" lon="6.40651">
        <ele>662.1</ele>
        <time>2024-01-16T10:18:03Z</time>
      </trkpt>
      <trkpt lat="46.15195" lon="6.40675">
        <ele>662.5</ele>
        <time>2024-01-16T10:18:23Z</time>
      </trkpt>
      <trkpt lat="46.15194" lon="6.40676">
        <ele>662.6</ele>
        <time>2024-01-16T10:18:24Z</time>
      </trkpt>
      <trkpt lat="46.15174" lon="6.40703">
        <ele>662.5</ele>
        <time>2024-01-16T10:18:43Z</time>
      </trkpt>
      <trkpt lat="46.15157" lon="6.40729">
        <ele>662.4</ele>
        <time>2024-01-16T10:19:01Z</time>
      </trkpt>
      <trkpt lat="46.15146" lon="6.40753">
        <ele>662.6</ele>
        <time>2024-01-16T10:19:16Z</time>
      </trkpt>
      <trkpt lat="46.1514" lon="6.4078">
        <ele>663</ele>
        <time>2024-01-16T10:19:32Z</time>
      </trkpt>
      <trkpt lat="46.15112" lon="6.40714">
        <ele>662.2</ele>
        <time>2024-01-16T10:20:13Z</time>
      </trkpt>
      <trkpt lat="46.15095" lon="6.40685">
        <ele>657.8</ele>
        <time>2024-01-16T10:20:32Z</time>
      </trkpt>
      <trkpt lat="46.15076" lon="6.40666">
        <ele>657.3</ele>
        <time>2024-01-16T10:20:48Z</time>
      </trkpt>
      <trkpt lat="46.15054" lon="6.40632">
        <ele>654</ele>
        <time>2024-01-16T10:21:11Z</time>
      </trkpt>
      <trkpt lat="46.15048" lon="6.40611">
        <ele>652.9</ele>
        <time>2024-01-16T10:21:24Z</time>
      </trkpt>
      <trkpt lat="46.15038" lon="6.40581">
        <ele>643.3</ele>
        <time>2024-01-16T10:21:42Z</time>
      </trkpt>
      <trkpt lat="46.15036" lon="6.40548">
        <ele>642.9</ele>
        <time>2024-01-16T10:22:01Z</time>
      </trkpt>
      <trkpt lat="46.15029" lon="6.40532">
        <ele>642.4</ele>
        <time>2024-01-16T10:22:11Z</time>
      </trkpt>
      <trkpt lat="46.14976" lon="6.40502">
        <ele>640.3</ele>
        <time>2024-01-16T10:22:45Z</time>
      </trkpt>
      <trkpt lat="46.14954" lon="6.4049">
        <ele>635.5</ele>
        <time>2024-01-16T10:22:59Z</time>
      </trkpt>
      <trkpt lat="46.14935" lon="6.40473">
        <ele>634</ele>
        <time>2024-01-16T10:23:13Z</time>
      </trkpt>
      <trkpt lat="46.14926" lon="6.40465">
        <ele>633.5</ele>
        <time>2024-01-16T10:23:20Z</time>
      </trkpt>
      <trkpt lat="46.14895" lon="6.4044">
        <ele>632.2</ele>
        <time>2024-01-16T10:23:42Z</time>
      </trkpt>
      <trkpt lat="46.14878" lon="6.40427">
        <ele>628</ele>
        <time>2024-01-16T10:23:54Z</time>
      </trkpt>
      <trkpt lat="46.14861" lon="6.40417">
        <ele>627.3</ele>
        <time>2024-01-16T10:24:05Z</time>
      </trkpt>
      <trkpt lat="46.14846" lon="6.40404">
        <ele>626.4</ele>
        <time>2024-01-16T10:24:16Z</time>
      </trkpt>
      <trkpt lat="46.14846" lon="6.40403">
        <ele>625.8</ele>
        <time>2024-01-16T10:24:17Z</time>
      </trkpt>
      <trkpt lat="46.1485" lon="6.40393">
        <ele>623</ele>
        <time>2024-01-16T10:24:23Z</time>
      </trkpt>
      <trkpt lat="46.14875" lon="6.40349">
        <ele>623</ele>
        <time>2024-01-16T10:24:52Z</time>
      </trkpt>
      <trkpt lat="46.14879" lon="6.40338">
        <ele>623</ele>
        <time>2024-01-16T10:24:58Z</time>
      </trkpt>
      <trkpt lat="46.14899" lon="6.40272">
        <ele>621.8</ele>
        <time>2024-01-16T10:25:37Z</time>
      </trkpt>
      <trkpt lat="46.1491" lon="6.4024">
        <ele>620.8</ele>
        <time>2024-01-16T10:25:56Z</time>
      </trkpt>
      <trkpt lat="46.14963" lon="6.40111">
        <ele>616.7</ele>
        <time>2024-01-16T10:27:16Z</time>
      </trkpt>
      <trkpt lat="46.14956" lon="6.40106">
        <ele>614.6</ele>
        <time>2024-01-16T10:27:21Z</time>
      </trkpt>
      <trkpt lat="46.14944" lon="6.40105">
        <ele>614.6</ele>
        <time>2024-01-16T10:27:28Z</time>
      </trkpt>
      <trkpt lat="46.14922" lon="6.40111">
        <ele>614.4</ele>
        <time>2024-01-16T10:27:41Z</time>
      </trkpt>
      <trkpt lat="46.14897" lon="6.40113">
        <ele>614.4</ele>
        <time>2024-01-16T10:27:55Z</time>
      </trkpt>
      <trkpt lat="46.14889" lon="6.40109">
        <ele>614.3</ele>
        <time>2024-01-16T10:28:01Z</time>
      </trkpt>
      <trkpt lat="46.14859" lon="6.40149">
        <ele>615</ele>
        <time>2024-01-16T10:28:30Z</time>
      </trkpt>
      <trkpt lat="46.1483" lon="6.40227">
        <ele>613</ele>
        <time>2024-01-16T10:29:17Z</time>
      </trkpt>
      <trkpt lat="46.14831" lon="6.40226">
        <ele>613</ele>
        <time>2024-01-16T10:29:18Z</time>
      </trkpt>
      <trkpt lat="46.14831" lon="6.40227">
        <ele>613</ele>
        <time>2024-01-16T10:29:19Z</time>
      </trkpt>
    </trkseg>
  </trk>
</gpx>